Time;durP1;ratioP1;P1;durP2;ratioP2;P2;SDS_P1;SDS_P2;PMS_P1;PMS_P2;Temp;Humidity;BMP_temperature;BMP_pressure;BME280_temperature;BME280_humidity;BME280_pressure;Samples;Min_cycle;Max_cycle;Signal;HPM_P1;HPM_P2
2024/01/24 09:59:42;;;;;;;0.20;0.20;;;;;;;14.17;97.84;99281.50;5183802;27;20519;-87
2024/01/24 10:02:29;;;;;;;0.40;0.33;;;;;;;14.91;85.39;99309.09;5133381;27;39932;-89
2024/01/24 10:05:00;;;;;;;0.27;0.27;;;;;;;15.66;80.97;99305.22;5132035;27;40750;-89
2024/01/24 10:07:29;;;;;;;0.30;0.30;;;;;;;16.04;76.97;99286.25;5149497;27;41776;-90
2024/01/24 10:13:10;;;;;;;0.63;0.30;;;;;;;16.79;69.41;99289.16;5132239;27;38601;-91
2024/01/24 10:16:05;;;;;;;3.40;0.50;;;;;;;17.18;64.19;99368.00;5080371;27;41919;-89
2024/01/24 10:18:33;;;;;;;0.43;0.30;;;;;;;17.02;60.45;99346.16;5132340;27;42092;-88
2024/01/24 10:21:26;;;;;;;0.77;0.40;;;;;;;17.42;58.71;99319.66;5131496;27;41375;-89
2024/01/24 10:24:13;;;;;;;0.70;0.40;;;;;;;18.30;55.11;99381.78;5131547;27;39255;-88
2024/01/24 10:26:55;;;;;;;1.43;0.40;;;;;;;18.07;53.58;99407.03;5131672;27;41487;-88
2024/01/24 10:29:25;;;;;;;2.63;0.40;;;;;;;17.75;53.41;99390.16;5131320;27;42874;-89
2024/01/24 10:32:10;;;;;;;0.60;0.50;;;;;;;16.95;54.25;99336.06;5132361;27;42943;-91
2024/01/24 10:34:41;;;;;;;0.80;0.40;;;;;;;16.78;54.40;99378.41;5132162;27;39086;-88
2024/01/24 10:37:11;;;;;;;1.33;0.60;;;;;;;17.63;52.49;99396.50;5131032;27;42621;-89
2024/01/24 10:39:39;;;;;;;2.20;0.63;;;;;;;18.11;49.77;99370.97;5131698;27;42900;-88
2024/01/24 10:42:10;;;;;;;2.77;0.67;;;;;;;18.34;49.73;99406.53;5131367;27;42433;-91
2024/01/24 10:44:38;;;;;;;3.70;0.83;;;;;;;20.94;47.08;99398.84;5131318;27;39596;-90
2024/01/24 10:47:06;;;;;;;1.53;0.80;;;;;;;22.43;42.89;99427.06;5130615;27;40850;-89
2024/01/24 10:49:45;;;;;;;1.20;0.60;;;;;;;23.36;40.57;99419.19;5131245;27;42888;-88
2024/01/24 10:52:15;;;;;;;2.30;0.60;;;;;;;23.52;38.42;99439.03;5130938;27;41595;-89
2024/01/24 10:54:48;;;;;;;1.30;0.83;;;;;;;23.22;37.53;99461.19;5131288;27;38904;-90
2024/01/24 10:57:19;;;;;;;2.47;0.80;;;;;;;22.17;37.80;99472.03;5148241;27;42749;-89
2024/01/24 10:59:52;;;;;;;1.97;1.10;;;;;;;21.32;39.27;99472.41;5130931;27;42302;-89
2024/01/24 11:02:24;;;;;;;2.53;1.00;;;;;;;20.40;41.01;99421.94;5131583;27;41071;-91
2024/01/24 11:04:55;;;;;;;2.13;0.93;;;;;;;20.01;41.56;99431.88;5131585;27;40510;-89
2024/01/24 11:07:32;;;;;;;2.27;1.13;;;;;;;19.94;42.27;99462.13;5127906;27;41173;-88
2024/01/24 11:10:13;;;;;;;2.43;0.80;;;;;;;19.48;43.39;99428.66;5105457;27;41926;-89
2024/01/24 11:12:41;;;;;;;2.10;0.90;;;;;;;19.12;43.83;99403.28;5099863;27;42795;-91
2024/01/24 11:15:13;;;;;;;1.77;0.97;;;;;;;18.82;44.56;99425.59;5100203;27;40723;-89
2024/01/24 11:17:45;;;;;;;1.80;1.00;;;;;;;18.19;45.35;99372.97;5099722;27;41011;-90
2024/01/24 11:20:14;;;;;;;3.80;0.73;;;;;;;17.91;46.07;99390.56;5099866;27;42732;-89
2024/01/24 11:22:46;;;;;;;4.13;1.33;;;;;;;17.45;46.23;99385.47;5099562;27;41589;-87
2024/01/24 11:25:14;;;;;;;2.43;1.00;;;;;;;17.33;47.37;99418.59;5100322;27;39068;-88
2024/01/24 11:27:43;;;;;;;3.17;1.00;;;;;;;17.24;47.45;99417.53;5099583;27;40601;-90
2024/01/24 11:30:39;;;;;;;4.20;0.93;;;;;;;16.93;48.17;99423.66;5099967;27;42079;-90
2024/01/24 11:33:16;;;;;;;2.83;0.90;;;;;;;16.60;46.90;99389.66;5099158;27;41462;-87
2024/01/24 11:35:54;;;;;;;5.10;1.10;;;;;;;16.36;46.90;99344.31;5099701;27;40091;-86
2024/01/24 11:38:40;;;;;;;4.60;1.30;;;;;;;16.93;46.80;99411.13;5099297;27;42102;-87
2024/01/24 11:41:32;;;;;;;3.60;1.10;;;;;;;17.34;45.68;99439.91;5100169;27;42537;-88
2024/01/24 11:44:00;;;;;;;5.20;1.50;;;;;;;16.76;45.71;99395.56;5101970;27;41192;-88
2024/01/24 11:46:28;;;;;;;4.57;1.40;;;;;;;16.54;46.92;99391.03;5111031;27;39345;-87
2024/01/24 11:49:08;;;;;;;5.63;1.13;;;;;;;16.28;47.44;99389.53;5107253;27;40453;-89
2024/01/24 11:52:02;;;;;;;6.87;1.57;;;;;;;16.27;48.93;99403.84;5109870;27;43311;-86
2024/01/24 11:54:32;;;;;;;4.47;1.40;;;;;;;16.38;48.44;99409.22;5107345;28;41726;-87
2024/01/24 11:57:15;;;;;;;4.97;1.53;;;;;;;16.30;48.51;99384.91;5090035;28;38986;-88
2024/01/24 11:59:43;;;;;;;4.23;1.47;;;;;;;16.73;48.79;99407.34;5093628;28;40936;-87
2024/01/24 12:02:13;;;;;;;5.17;1.50;;;;;;;16.50;47.01;99342.28;5096039;28;42266;-88
2024/01/24 12:04:41;;;;;;;2.83;1.10;;;;;;;16.28;48.05;99378.81;5099841;27;41550;-89
2024/01/24 12:07:10;;;;;;;3.97;1.33;;;;;;;16.33;48.69;99419.41;5099451;27;40424;-89
2024/01/24 12:09:38;;;;;;;3.13;1.37;;;;;;;16.16;49.37;99424.25;5098736;27;42518;-89
2024/01/24 12:12:06;;;;;;;2.97;1.30;;;;;;;16.35;50.01;99410.31;5099168;27;43588;-86
2024/01/24 12:14:40;;;;;;;4.00;1.60;;;;;;;16.45;48.95;99426.47;5098423;27;41818;-87
2024/01/24 12:17:11;;;;;;;4.83;1.37;;;;;;;16.12;48.70;99393.38;5099135;27;40682;-90
2024/01/24 12:19:59;;;;;;;3.73;1.40;;;;;;;16.22;49.57;99422.06;5098736;27;40591;-85
2024/01/24 12:22:31;;;;;;;5.10;1.57;;;;;;;15.99;49.31;99395.28;5098867;27;41739;-88
2024/01/24 12:25:19;;;;;;;5.10;1.77;;;;;;;16.71;48.07;99445.88;5098643;27;41583;-88
2024/01/24 12:27:51;;;;;;;2.90;1.37;;;;;;;16.69;48.19;99443.31;5098421;27;40080;-88
2024/01/24 12:30:24;;;;;;;6.57;1.90;;;;;;;16.52;48.53;99451.78;5098863;27;41027;-90
2024/01/24 12:32:56;;;;;;;4.17;1.50;;;;;;;16.21;49.08;99420.34;5098697;27;42139;-90
2024/01/24 12:35:24;;;;;;;5.23;1.43;;;;;;;15.93;49.15;99405.59;5098229;27;42822;-87
2024/01/24 12:37:56;;;;;;;7.03;1.53;;;;;;;15.69;49.26;99370.91;5098988;27;39860;-87
2024/01/24 12:40:26;;;;;;;6.70;1.63;;;;;;;15.61;48.48;99373.28;5097934;27;42139;-92
2024/01/24 12:42:54;;;;;;;3.33;1.80;;;;;;;15.88;48.89;99424.63;5098664;27;45110;-87
2024/01/24 12:45:37;;;;;;;4.33;1.10;;;;;;;15.64;49.06;99415.78;5097348;27;41549;-86
2024/01/24 12:48:41;;;;;;;6.10;1.67;;;;;;;16.11;47.57;99425.53;5098683;27;39228;-86
2024/01/24 12:54:10;;;;;;;6.47;1.50;;;;;;;17.42;46.59;99485.66;5098227;27;42086;-89
2024/01/24 12:56:41;;;;;;;4.73;1.20;;;;;;;17.93;44.41;99463.63;5098130;27;41065;-90
2024/01/24 12:59:13;;;;;;;4.70;1.40;;;;;;;17.66;44.01;99433.78;5097372;27;38830;-90
2024/01/24 13:01:42;;;;;;;4.60;1.80;;;;;;;17.90;44.40;99496.06;5120131;27;42196;-88
2024/01/24 13:04:12;;;;;;;4.17;1.53;;;;;;;17.80;44.36;99479.03;5135870;27;42526;-89
2024/01/24 13:06:43;;;;;;;3.77;1.40;;;;;;;16.88;44.47;99422.19;5135087;27;41263;-86
2024/01/24 13:09:16;;;;;;;5.90;1.60;;;;;;;18.41;43.61;99511.47;5136197;27;38863;-89
2024/01/24 13:11:53;;;;;;;4.37;1.13;;;;;;;18.91;40.80;99446.28;5135733;27;41794;-90
2024/01/24 13:14:21;;;;;;;5.93;1.77;;;;;;;18.99;40.82;99505.53;5135699;27;43153;-89
2024/01/24 13:16:51;;;;;;;5.93;2.00;;;;;;;18.71;40.63;99491.91;5152913;27;42686;-85
2024/01/24 13:19:24;;;;;;;3.23;1.33;;;;;;;19.22;39.99;99489.22;5118481;27;39760;-88
2024/01/24 13:21:54;;;;;;;4.23;1.97;;;;;;;18.89;40.01;99536.84;5135354;27;40913;-86
2024/01/24 13:24:23;;;;;;;6.00;1.60;;;;;;;18.21;40.52;99502.41;5135893;27;42036;-91
2024/01/24 13:26:51;;;;;;;5.27;1.60;;;;;;;18.10;40.18;99543.50;5135547;27;41162;-88
2024/01/24 13:29:22;;;;;;;7.57;1.57;;;;;;;17.92;40.88;99542.34;5135600;27;39127;-87
2024/01/24 13:32:17;;;;;;;4.70;1.67;;;;;;;17.21;40.48;99536.41;5135465;27;40945;-87
2024/01/24 13:34:45;;;;;;;4.87;1.77;;;;;;;17.06;42.03;99534.09;5135218;27;42202;-85
2024/01/24 13:37:29;;;;;;;5.37;1.57;;;;;;;16.93;42.41;99555.63;5123536;27;41503;-89
2024/01/24 13:39:58;;;;;;;4.70;1.37;;;;;;;16.74;43.03;99558.84;5094551;28;40309;-89
2024/01/24 13:42:26;;;;;;;5.17;1.77;;;;;;;16.16;43.56;99517.78;5094208;28;40716;-90
2024/01/24 13:44:54;;;;;;;4.60;1.50;;;;;;;16.31;43.65;99581.75;5094379;28;42017;-90
2024/01/24 13:47:22;;;;;;;5.53;1.67;;;;;;;16.00;44.12;99557.28;5094046;28;41221;-87
2024/01/24 13:49:57;;;;;;;3.90;1.37;;;;;;;15.81;44.90;99548.91;5077064;28;38707;-91
2024/01/24 13:52:25;;;;;;;5.60;1.90;;;;;;;15.84;45.23;99571.84;5093996;28;42100;-88
2024/01/24 13:54:55;;;;;;;5.33;1.40;;;;;;;15.65;44.81;99572.34;5094327;28;42440;-88
2024/01/24 13:57:24;;;;;;;10.80;1.90;;;;;;;15.31;45.29;99545.38;5093723;28;42164;-88
2024/01/24 14:02:35;;;;;;;7.07;1.60;;;;;;;15.16;46.07;99558.94;5093319;28;40912;-90
2024/01/24 14:05:03;;;;;;;7.20;1.80;;;;;;;15.02;46.23;99551.88;5094074;28;42752;-89
2024/01/24 14:07:38;;;;;;;7.33;1.87;;;;;;;14.99;46.11;99568.09;5093586;28;41950;-91
2024/01/24 14:10:10;;;;;;;5.83;1.40;;;;;;;14.97;46.20;99568.19;5094314;28;40328;-89
2024/01/24 14:13:02;;;;;;;6.47;1.70;;;;;;;14.55;46.45;99525.84;5093853;28;41168;-89
2024/01/24 14:15:37;;;;;;;7.70;1.70;;;;;;;14.94;46.59;99588.91;5093613;28;42347;-83
2024/01/24 14:18:06;;;;;;;7.43;1.80;;;;;;;14.91;47.42;99591.78;5076556;28;42923;-88
2024/01/24 14:20:34;;;;;;;8.87;1.80;;;;;;;14.43;47.46;99543.50;5093312;28;40235;-86
2024/01/24 14:23:01;;;;;;;7.70;2.53;;;;;;;14.12;48.33;99527.81;5090918;28;41056;-89
2024/01/24 14:25:29;;;;;;;6.80;2.10;;;;;;;14.40;48.40;99604.16;5093555;28;41408;-90
2024/01/24 14:28:15;;;;;;;5.83;1.30;;;;;;;14.33;49.19;99582.38;5093515;28;42037;-87
2024/01/24 14:30:43;;;;;;;8.23;2.17;;;;;;;14.08;50.06;99547.63;5093440;28;40863;-89
2024/01/24 14:33:12;;;;;;;7.73;2.53;;;;;;;14.22;50.50;99587.50;5090593;28;41912;-87
2024/01/24 14:35:40;;;;;;;9.73;1.87;;;;;;;14.22;50.77;99592.84;5093196;28;43303;-88
2024/01/24 14:38:07;;;;;;;10.70;2.00;;;;;;;14.07;51.01;99585.88;5093680;28;41706;-89
2024/01/24 14:40:35;;;;;;;8.83;2.07;;;;;;;13.98;51.36;99584.66;5093084;28;39355;-87
2024/01/24 14:43:13;;;;;;;7.80;1.73;;;;;;;13.98;51.34;99576.66;5109391;28;41803;-87
2024/01/24 14:45:41;;;;;;;6.00;1.70;;;;;;;13.87;51.22;99542.75;5094826;28;41434;-88
2024/01/24 14:48:09;;;;;;;10.27;2.67;;;;;;;14.29;50.78;99596.84;5097234;28;42852;-90
2024/01/24 14:50:37;;;;;;;10.53;2.40;;;;;;;14.15;50.68;99571.09;5096314;28;39670;-88
2024/01/24 14:53:05;;;;;;;10.33;2.33;;;;;;;14.55;50.25;99601.31;5097125;28;40995;-89
2024/01/24 14:55:33;;;;;;;11.03;2.47;;;;;;;14.42;50.35;99556.94;5096502;28;43989;-88
2024/01/24 14:58:01;;;;;;;6.87;2.43;;;;;;;14.31;49.46;99560.28;5096751;28;43694;-88
2024/01/24 15:00:39;;;;;;;6.67;1.80;;;;;;;14.45;49.10;99594.06;5096894;28;38860;-89
2024/01/24 15:03:12;;;;;;;10.00;2.80;;;;;;;14.09;49.68;99570.66;5096919;28;41290;-91
2024/01/24 15:05:39;;;;;;;7.80;2.17;;;;;;;14.20;49.59;99616.94;5096055;28;43227;-88
2024/01/24 15:08:27;;;;;;;11.90;2.07;;;;;;;14.13;49.41;99652.06;5096935;28;41847;-86
2024/01/24 15:10:57;;;;;;;8.37;2.47;;;;;;;13.87;49.85;99640.41;5096427;28;40416;-88
2024/01/24 15:13:45;;;;;;;10.03;2.40;;;;;;;13.47;50.47;99586.19;5096748;28;41636;-88
2024/01/24 15:16:14;;;;;;;10.10;2.60;;;;;;;13.54;50.29;99601.66;5092388;28;42990;-84
2024/01/24 15:19:03;;;;;;;8.97;2.23;;;;;;;13.45;50.49;99612.91;5096919;28;41268;-87
2024/01/24 15:21:51;;;;;;;8.87;2.10;;;;;;;13.49;50.80;99611.72;5096369;28;39183;-86
2024/01/24 15:27:23;;;;;;;6.80;2.17;;;;;;;13.26;51.49;99594.53;5096142;28;44916;-87
2024/01/24 15:30:08;;;;;;;7.63;2.20;;;;;;;13.41;51.91;99626.47;5095881;28;42476;-89
2024/01/24 15:32:37;;;;;;;8.90;2.40;;;;;;;13.27;51.87;99646.78;5096173;28;38581;-87
2024/01/24 15:35:11;;;;;;;10.00;2.33;;;;;;;13.23;51.85;99639.94;5095567;28;40381;-88
2024/01/24 15:37:41;;;;;;;6.97;2.03;;;;;;;12.66;52.02;99569.84;5096009;28;43290;-89
2024/01/24 15:40:31;;;;;;;11.17;2.43;;;;;;;13.03;52.52;99637.59;5095536;28;41875;-88
2024/01/24 15:42:59;;;;;;;6.70;2.43;;;;;;;12.94;52.46;99648.78;5096384;28;41388;-91
2024/01/24 15:45:38;;;;;;;8.80;2.60;;;;;;;12.70;53.06;99624.53;5096004;28;40957;-89
2024/01/24 15:48:09;;;;;;;9.13;2.37;;;;;;;12.61;53.10;99635.66;5096199;28;42809;-89
2024/01/24 15:51:09;;;;;;;9.13;2.33;;;;;;;12.50;53.33;99627.47;5095755;28;41452;-90
2024/01/24 15:53:37;;;;;;;11.70;2.47;;;;;;;12.58;53.96;99667.75;5037086;28;39374;-89
2024/01/24 15:56:07;;;;;;;9.57;2.07;;;;;;;12.31;54.16;99637.47;5037222;28;43653;-90
2024/01/24 15:58:36;;;;;;;7.57;2.00;;;;;;;12.21;54.34;99647.75;5037680;28;42006;-90
2024/01/24 16:01:07;;;;;;;14.13;3.00;;;;;;;12.26;54.64;99656.31;5037059;28;42472;-87
2024/01/24 16:03:38;;;;;;;8.63;3.00;;;;;;;12.32;54.56;99676.34;5054606;28;39953;-88
2024/01/24 16:06:10;;;;;;;11.00;2.73;;;;;;;11.87;55.14;99612.47;5054403;28;41742;-90
2024/01/24 16:08:37;;;;;;;11.67;2.70;;;;;;;12.16;55.49;99676.34;5038293;28;43140;-89
2024/01/24 16:11:18;;;;;;;7.60;2.10;;;;;;;11.64;55.46;99598.72;5050168;28;41609;-88
2024/01/24 16:13:50;;;;;;;8.00;2.50;;;;;;;11.83;55.46;99645.44;5095853;28;40359;-87
2024/01/24 16:16:58;;;;;;;11.23;2.43;;;;;;;12.06;56.09;99683.13;5078743;28;40404;-89
2024/01/24 16:19:44;;;;;;;7.50;2.23;;;;;;;11.72;56.04;99665.50;5095776;28;43411;-89
2024/01/24 16:22:14;;;;;;;10.00;2.37;;;;;;;11.65;56.24;99654.34;5093494;27;43879;-89
2024/01/24 16:24:42;;;;;;;8.10;2.27;;;;;;;11.62;56.44;99665.13;5099342;27;38835;-90
2024/01/24 16:27:13;;;;;;;7.90;2.40;;;;;;;11.76;57.01;99704.22;5095692;28;40888;-87
2024/01/24 16:30:17;;;;;;;10.03;2.63;;;;;;;11.52;57.11;99662.13;5095969;28;42658;-88
2024/01/24 16:32:51;;;;;;;8.70;2.30;;;;;;;11.49;56.95;99670.25;5098595;27;41928;-86
2024/01/24 16:38:31;;;;;;;11.07;2.73;;;;;;;11.48;57.41;99671.19;5099125;27;42022;-84
2024/01/24 16:40:59;;;;;;;11.87;2.40;;;;;;;11.58;57.76;99714.00;5098870;27;43168;-87
2024/01/24 16:43:31;;;;;;;9.27;2.77;;;;;;;11.55;57.66;99713.31;5098460;27;42274;-88
2024/01/24 16:46:04;;;;;;;6.57;2.00;;;;;;;11.49;57.87;99695.94;5099109;27;39215;-86
2024/01/24 16:48:48;;;;;;;16.00;2.97;;;;;;;11.38;58.34;99701.78;5098470;27;40931;-87
2024/01/24 16:51:20;;;;;;;9.53;2.50;;;;;;;11.43;58.27;99713.00;5098810;27;44057;-87
2024/01/24 16:53:50;;;;;;;9.83;2.60;;;;;;;11.19;58.14;99687.78;5098411;27;41439;-88
2024/01/24 16:56:18;;;;;;;9.40;2.27;;;;;;;11.10;58.61;99667.03;5098871;27;38961;-91
